sensor_id;sensor_type;location;lat;lon;timestamp;P1;durP1;ratioP1;P2;durP2;ratioP2
79284;SDS011;68734;50.452;11.636;2023-05-19T00:01:09;13.98;;;3.53;;
79284;SDS011;68734;50.452;11.636;2023-05-19T00:03:37;8.38;;;3.28;;
79284;SDS011;68734;50.452;11.636;2023-05-19T00:06:12;7.82;;;3.22;;
79284;SDS011;68734;50.452;11.636;2023-05-19T00:08:43;7.85;;;3.08;;
79284;SDS011;68734;50.452;11.636;2023-05-19T00:11:08;11.40;;;3.65;;
79284;SDS011;68734;50.452;11.636;2023-05-19T00:13:34;5.50;;;3.20;;
79284;SDS011;68734;50.452;11.636;2023-05-19T00:16:00;10.70;;;3.42;;
79284;SDS011;68734;50.452;11.636;2023-05-19T00:18:25;12.77;;;3.80;;
79284;SDS011;68734;50.452;11.636;2023-05-19T00:20:53;9.82;;;4.18;;
79284;SDS011;68734;50.452;11.636;2023-05-19T00:23:19;9.25;;;3.72;;
79284;SDS011;68734;50.452;11.636;2023-05-19T00:25:44;16.08;;;4.00;;
79284;SDS011;68734;50.452;11.636;2023-05-19T00:28:09;10.05;;;3.72;;
79284;SDS011;68734;50.452;11.636;2023-05-19T00:30:37;11.95;;;3.35;;
79284;SDS011;68734;50.452;11.636;2023-05-19T00:33:03;7.80;;;4.15;;
79284;SDS011;68734;50.452;11.636;2023-05-19T00:35:28;9.43;;;3.78;;
79284;SDS011;68734;50.452;11.636;2023-05-19T00:37:53;6.95;;;3.75;;
79284;SDS011;68734;50.452;11.636;2023-05-19T00:40:19;7.47;;;4.03;;
79284;SDS011;68734;50.452;11.636;2023-05-19T00:42:46;10.30;;;3.90;;
79284;SDS011;68734;50.452;11.636;2023-05-19T00:45:13;9.10;;;3.63;;
79284;SDS011;68734;50.452;11.636;2023-05-19T00:47:39;10.52;;;3.95;;
79284;SDS011;68734;50.452;11.636;2023-05-19T00:50:04;12.63;;;4.03;;
79284;SDS011;68734;50.452;11.636;2023-05-19T00:52:32;10.77;;;4.97;;
79284;SDS011;68734;50.452;11.636;2023-05-19T00:54:58;7.25;;;3.80;;
79284;SDS011;68734;50.452;11.636;2023-05-19T00:57:29;5.63;;;3.83;;
79284;SDS011;68734;50.452;11.636;2023-05-19T01:00:15;5.93;;;3.90;;
79284;SDS011;68734;50.452;11.636;2023-05-19T01:02:41;7.25;;;4.03;;
79284;SDS011;68734;50.452;11.636;2023-05-19T01:05:07;12.95;;;4.00;;
79284;SDS011;68734;50.452;11.636;2023-05-19T01:07:33;10.10;;;3.45;;
79284;SDS011;68734;50.452;11.636;2023-05-19T01:09:58;14.98;;;4.13;;
79284;SDS011;68734;50.452;11.636;2023-05-19T01:12:24;9.57;;;4.47;;
79284;SDS011;68734;50.452;11.636;2023-05-19T01:14:50;9.27;;;3.83;;
79284;SDS011;68734;50.452;11.636;2023-05-19T01:17:29;12.30;;;4.50;;
79284;SDS011;68734;50.452;11.636;2023-05-19T01:31:39;10.95;;;5.10;;
79284;SDS011;68734;50.452;11.636;2023-05-19T01:36:37;16.58;;;4.97;;
79284;SDS011;68734;50.452;11.636;2023-05-19T01:39:08;6.53;;;3.97;;
79284;SDS011;68734;50.452;11.636;2023-05-19T01:41:37;10.95;;;4.05;;
79284;SDS011;68734;50.452;11.636;2023-05-19T01:44:08;14.73;;;4.57;;
79284;SDS011;68734;50.452;11.636;2023-05-19T01:46:34;10.00;;;5.03;;
79284;SDS011;68734;50.452;11.636;2023-05-19T01:49:00;14.43;;;5.13;;
79284;SDS011;68734;50.452;11.636;2023-05-19T01:51:26;8.30;;;3.72;;
79284;SDS011;68734;50.452;11.636;2023-05-19T01:53:51;10.07;;;4.40;;
79284;SDS011;68734;50.452;11.636;2023-05-19T01:56:19;11.48;;;4.43;;
79284;SDS011;68734;50.452;11.636;2023-05-19T01:58:57;11.77;;;4.45;;
79284;SDS011;68734;50.452;11.636;2023-05-19T02:07:14;13.38;;;6.03;;
79284;SDS011;68734;50.452;11.636;2023-05-19T02:10:09;19.10;;;5.50;;
79284;SDS011;68734;50.452;11.636;2023-05-19T02:12:39;13.15;;;4.88;;
79284;SDS011;68734;50.452;11.636;2023-05-19T02:17:39;15.13;;;5.25;;
79284;SDS011;68734;50.452;11.636;2023-05-19T02:20:06;14.18;;;5.57;;
79284;SDS011;68734;50.452;11.636;2023-05-19T02:22:33;14.05;;;5.32;;
79284;SDS011;68734;50.452;11.636;2023-05-19T02:24:59;12.73;;;5.07;;
79284;SDS011;68734;50.452;11.636;2023-05-19T02:27:24;11.02;;;5.00;;
79284;SDS011;68734;50.452;11.636;2023-05-19T02:29:50;15.77;;;5.72;;
79284;SDS011;68734;50.452;11.636;2023-05-19T02:32:19;10.70;;;5.07;;
79284;SDS011;68734;50.452;11.636;2023-05-19T02:34:45;13.98;;;5.78;;
79284;SDS011;68734;50.452;11.636;2023-05-19T02:37:13;10.68;;;5.13;;
79284;SDS011;68734;50.452;11.636;2023-05-19T02:39:42;10.32;;;4.97;;
79284;SDS011;68734;50.452;11.636;2023-05-19T02:42:07;14.20;;;5.00;;
79284;SDS011;68734;50.452;11.636;2023-05-19T02:44:33;12.88;;;5.47;;
79284;SDS011;68734;50.452;11.636;2023-05-19T02:47:01;9.82;;;4.97;;
79284;SDS011;68734;50.452;11.636;2023-05-19T02:49:26;16.17;;;5.35;;
79284;SDS011;68734;50.452;11.636;2023-05-19T02:51:54;14.65;;;5.93;;
79284;SDS011;68734;50.452;11.636;2023-05-19T02:54:20;8.75;;;5.20;;
79284;SDS011;68734;50.452;11.636;2023-05-19T02:56:45;14.82;;;4.60;;
79284;SDS011;68734;50.452;11.636;2023-05-19T02:59:11;13.23;;;5.63;;
79284;SDS011;68734;50.452;11.636;2023-05-19T03:01:36;10.88;;;5.45;;
79284;SDS011;68734;50.452;11.636;2023-05-19T03:04:04;10.65;;;4.55;;
79284;SDS011;68734;50.452;11.636;2023-05-19T03:06:29;8.90;;;4.80;;
79284;SDS011;68734;50.452;11.636;2023-05-19T03:08:56;11.75;;;4.65;;
79284;SDS011;68734;50.452;11.636;2023-05-19T03:11:22;7.68;;;5.43;;
79284;SDS011;68734;50.452;11.636;2023-05-19T03:13:47;9.77;;;4.82;;
79284;SDS011;68734;50.452;11.636;2023-05-19T03:16:13;14.75;;;7.20;;
79284;SDS011;68734;50.452;11.636;2023-05-19T03:18:38;16.00;;;6.03;;
79284;SDS011;68734;50.452;11.636;2023-05-19T03:21:05;14.32;;;4.55;;
79284;SDS011;68734;50.452;11.636;2023-05-19T03:23:31;12.90;;;4.47;;
79284;SDS011;68734;50.452;11.636;2023-05-19T03:25:59;12.15;;;5.50;;
79284;SDS011;68734;50.452;11.636;2023-05-19T03:28:25;8.55;;;4.95;;
79284;SDS011;68734;50.452;11.636;2023-05-19T03:30:51;10.88;;;4.70;;
79284;SDS011;68734;50.452;11.636;2023-05-19T03:33:19;9.52;;;4.53;;
79284;SDS011;68734;50.452;11.636;2023-05-19T03:35:44;7.88;;;4.25;;
79284;SDS011;68734;50.452;11.636;2023-05-19T03:38:10;9.32;;;4.95;;
79284;SDS011;68734;50.452;11.636;2023-05-19T03:40:36;8.77;;;3.88;;
79284;SDS011;68734;50.452;11.636;2023-05-19T03:43:05;17.85;;;4.45;;
79284;SDS011;68734;50.452;11.636;2023-05-19T03:45:33;12.70;;;4.55;;
79284;SDS011;68734;50.452;11.636;2023-05-19T03:47:58;9.82;;;4.22;;
79284;SDS011;68734;50.452;11.636;2023-05-19T03:50:24;11.30;;;4.43;;
79284;SDS011;68734;50.452;11.636;2023-05-19T03:52:51;6.90;;;3.53;;
79284;SDS011;68734;50.452;11.636;2023-05-19T03:55:17;11.88;;;5.20;;
79284;SDS011;68734;50.452;11.636;2023-05-19T03:57:44;9.13;;;3.88;;
79284;SDS011;68734;50.452;11.636;2023-05-19T04:00:12;9.18;;;3.25;;
79284;SDS011;68734;50.452;11.636;2023-05-19T04:02:38;5.72;;;3.22;;
79284;SDS011;68734;50.452;11.636;2023-05-19T04:05:04;6.78;;;3.28;;
79284;SDS011;68734;50.452;11.636;2023-05-19T04:07:31;11.18;;;3.72;;
79284;SDS011;68734;50.452;11.636;2023-05-19T04:09:56;15.52;;;4.63;;
79284;SDS011;68734;50.452;11.636;2023-05-19T04:12:22;11.13;;;3.90;;
79284;SDS011;68734;50.452;11.636;2023-05-19T04:14:49;10.95;;;4.13;;
79284;SDS011;68734;50.452;11.636;2023-05-19T04:17:15;10.73;;;3.92;;
79284;SDS011;68734;50.452;11.636;2023-05-19T04:19:43;10.82;;;3.83;;
79284;SDS011;68734;50.452;11.636;2023-05-19T04:22:09;13.40;;;4.25;;
79284;SDS011;68734;50.452;11.636;2023-05-19T04:24:35;7.07;;;4.03;;
79284;SDS011;68734;50.452;11.636;2023-05-19T04:27:03;11.43;;;3.95;;
79284;SDS011;68734;50.452;11.636;2023-05-19T04:29:29;11.23;;;5.35;;
79284;SDS011;68734;50.452;11.636;2023-05-19T04:31:54;8.73;;;3.42;;
79284;SDS011;68734;50.452;11.636;2023-05-19T04:34:23;9.60;;;4.07;;
79284;SDS011;68734;50.452;11.636;2023-05-19T04:36:48;15.88;;;5.22;;
79284;SDS011;68734;50.452;11.636;2023-05-19T04:39:19;23.00;;;5.10;;
79284;SDS011;68734;50.452;11.636;2023-05-19T04:41:47;9.65;;;5.07;;
79284;SDS011;68734;50.452;11.636;2023-05-19T04:44:12;8.88;;;4.25;;
79284;SDS011;68734;50.452;11.636;2023-05-19T04:46:41;13.68;;;5.28;;
79284;SDS011;68734;50.452;11.636;2023-05-19T04:49:09;8.50;;;4.93;;
79284;SDS011;68734;50.452;11.636;2023-05-19T04:51:36;12.20;;;4.68;;
79284;SDS011;68734;50.452;11.636;2023-05-19T04:54:05;15.48;;;5.28;;
79284;SDS011;68734;50.452;11.636;2023-05-19T04:56:31;9.60;;;4.68;;
79284;SDS011;68734;50.452;11.636;2023-05-19T04:58:57;11.02;;;5.00;;
79284;SDS011;68734;50.452;11.636;2023-05-19T05:01:25;8.00;;;3.92;;
79284;SDS011;68734;50.452;11.636;2023-05-19T05:03:51;11.27;;;5.32;;
79284;SDS011;68734;50.452;11.636;2023-05-19T05:06:23;10.55;;;3.88;;
79284;SDS011;68734;50.452;11.636;2023-05-19T05:08:49;8.40;;;4.63;;
79284;SDS011;68734;50.452;11.636;2023-05-19T05:11:15;14.15;;;5.05;;
79284;SDS011;68734;50.452;11.636;2023-05-19T05:13:43;11.70;;;4.80;;
79284;SDS011;68734;50.452;11.636;2023-05-19T05:16:09;11.10;;;4.93;;
79284;SDS011;68734;50.452;11.636;2023-05-19T05:18:35;12.10;;;4.07;;
79284;SDS011;68734;50.452;11.636;2023-05-19T05:21:02;10.45;;;4.57;;
79284;SDS011;68734;50.452;11.636;2023-05-19T05:23:28;8.35;;;3.78;;
79284;SDS011;68734;50.452;11.636;2023-05-19T05:25:54;9.95;;;4.53;;
79284;SDS011;68734;50.452;11.636;2023-05-19T05:28:20;8.20;;;4.32;;
79284;SDS011;68734;50.452;11.636;2023-05-19T05:30:48;10.30;;;4.18;;
79284;SDS011;68734;50.452;11.636;2023-05-19T05:33:15;9.35;;;3.78;;
79284;SDS011;68734;50.452;11.636;2023-05-19T05:35:42;11.55;;;4.40;;
79284;SDS011;68734;50.452;11.636;2023-05-19T05:38:07;8.73;;;3.45;;
79284;SDS011;68734;50.452;11.636;2023-05-19T05:40:33;13.07;;;3.45;;
79284;SDS011;68734;50.452;11.636;2023-05-19T05:42:58;7.47;;;4.22;;
79284;SDS011;68734;50.452;11.636;2023-05-19T05:45:24;10.32;;;3.42;;
79284;SDS011;68734;50.452;11.636;2023-05-19T05:47:52;10.90;;;4.13;;
79284;SDS011;68734;50.452;11.636;2023-05-19T05:50:18;11.25;;;3.67;;
79284;SDS011;68734;50.452;11.636;2023-05-19T05:52:45;11.52;;;3.72;;
79284;SDS011;68734;50.452;11.636;2023-05-19T05:55:11;12.60;;;3.60;;
79284;SDS011;68734;50.452;11.636;2023-05-19T05:57:37;10.45;;;3.17;;
79284;SDS011;68734;50.452;11.636;2023-05-19T06:00:03;8.25;;;3.42;;
79284;SDS011;68734;50.452;11.636;2023-05-19T06:02:34;11.10;;;3.20;;
79284;SDS011;68734;50.452;11.636;2023-05-19T06:05:00;9.98;;;3.50;;
79284;SDS011;68734;50.452;11.636;2023-05-19T06:07:26;6.53;;;3.10;;
79284;SDS011;68734;50.452;11.636;2023-05-19T06:09:51;9.32;;;3.05;;
79284;SDS011;68734;50.452;11.636;2023-05-19T06:12:17;8.55;;;3.63;;
79284;SDS011;68734;50.452;11.636;2023-05-19T06:14:42;5.95;;;2.70;;
79284;SDS011;68734;50.452;11.636;2023-05-19T06:17:08;8.80;;;3.10;;
79284;SDS011;68734;50.452;11.636;2023-05-19T06:19:33;8.25;;;3.35;;
79284;SDS011;68734;50.452;11.636;2023-05-19T06:21:59;10.77;;;3.03;;
79284;SDS011;68734;50.452;11.636;2023-05-19T06:24:24;6.13;;;2.65;;
79284;SDS011;68734;50.452;11.636;2023-05-19T06:26:50;8.65;;;3.08;;
79284;SDS011;68734;50.452;11.636;2023-05-19T06:29:16;5.53;;;2.30;;
79284;SDS011;68734;50.452;11.636;2023-05-19T06:31:41;10.93;;;3.60;;
79284;SDS011;68734;50.452;11.636;2023-05-19T06:34:07;11.75;;;4.32;;
79284;SDS011;68734;50.452;11.636;2023-05-19T06:36:36;9.95;;;3.08;;
79284;SDS011;68734;50.452;11.636;2023-05-19T06:39:01;8.40;;;2.78;;
79284;SDS011;68734;50.452;11.636;2023-05-19T06:41:27;10.88;;;3.05;;
79284;SDS011;68734;50.452;11.636;2023-05-19T06:43:53;7.53;;;2.67;;
79284;SDS011;68734;50.452;11.636;2023-05-19T06:46:18;8.35;;;2.90;;
79284;SDS011;68734;50.452;11.636;2023-05-19T06:48:43;10.55;;;3.30;;
79284;SDS011;68734;50.452;11.636;2023-05-19T06:51:09;7.47;;;2.92;;
79284;SDS011;68734;50.452;11.636;2023-05-19T06:53:34;9.70;;;2.58;;
79284;SDS011;68734;50.452;11.636;2023-05-19T06:56:00;8.13;;;3.00;;
79284;SDS011;68734;50.452;11.636;2023-05-19T06:58:25;7.85;;;3.13;;
79284;SDS011;68734;50.452;11.636;2023-05-19T07:00:51;4.97;;;2.67;;
79284;SDS011;68734;50.452;11.636;2023-05-19T07:03:16;8.02;;;2.83;;
79284;SDS011;68734;50.452;11.636;2023-05-19T07:05:44;10.63;;;3.67;;
79284;SDS011;68734;50.452;11.636;2023-05-19T07:08:09;8.13;;;3.28;;
79284;SDS011;68734;50.452;11.636;2023-05-19T07:10:35;7.15;;;2.90;;
79284;SDS011;68734;50.452;11.636;2023-05-19T07:13:00;7.53;;;2.53;;
79284;SDS011;68734;50.452;11.636;2023-05-19T07:15:28;6.88;;;2.80;;
79284;SDS011;68734;50.452;11.636;2023-05-19T07:17:53;9.75;;;3.25;;
79284;SDS011;68734;50.452;11.636;2023-05-19T07:20:21;10.30;;;3.58;;
79284;SDS011;68734;50.452;11.636;2023-05-19T07:22:47;4.70;;;2.40;;
79284;SDS011;68734;50.452;11.636;2023-05-19T07:25:14;13.05;;;3.33;;
79284;SDS011;68734;50.452;11.636;2023-05-19T07:27:40;6.90;;;2.67;;
79284;SDS011;68734;50.452;11.636;2023-05-19T07:30:08;9.95;;;3.22;;
79284;SDS011;68734;50.452;11.636;2023-05-19T07:32:33;6.55;;;3.08;;
79284;SDS011;68734;50.452;11.636;2023-05-19T07:34:59;7.93;;;3.47;;
79284;SDS011;68734;50.452;11.636;2023-05-19T07:37:24;6.88;;;2.58;;
79284;SDS011;68734;50.452;11.636;2023-05-19T07:39:50;15.23;;;2.97;;
79284;SDS011;68734;50.452;11.636;2023-05-19T07:42:15;5.82;;;2.67;;
79284;SDS011;68734;50.452;11.636;2023-05-19T07:44:41;5.80;;;2.15;;
79284;SDS011;68734;50.452;11.636;2023-05-19T07:47:06;3.75;;;2.08;;
79284;SDS011;68734;50.452;11.636;2023-05-19T07:49:32;8.25;;;2.80;;
79284;SDS011;68734;50.452;11.636;2023-05-19T07:51:57;7.07;;;2.85;;
79284;SDS011;68734;50.452;11.636;2023-05-19T07:54:23;6.28;;;2.78;;
79284;SDS011;68734;50.452;11.636;2023-05-19T07:56:48;6.40;;;2.40;;
79284;SDS011;68734;50.452;11.636;2023-05-19T07:59:16;6.13;;;2.40;;
79284;SDS011;68734;50.452;11.636;2023-05-19T08:01:41;7.10;;;2.67;;
79284;SDS011;68734;50.452;11.636;2023-05-19T08:04:07;7.90;;;2.40;;
79284;SDS011;68734;50.452;11.636;2023-05-19T08:06:32;8.15;;;2.90;;
79284;SDS011;68734;50.452;11.636;2023-05-19T08:08:59;7.00;;;2.95;;
79284;SDS011;68734;50.452;11.636;2023-05-19T08:11:27;7.40;;;3.08;;
79284;SDS011;68734;50.452;11.636;2023-05-19T08:13:53;8.23;;;3.47;;
79284;SDS011;68734;50.452;11.636;2023-05-19T08:16:18;8.43;;;3.78;;
79284;SDS011;68734;50.452;11.636;2023-05-19T08:18:43;4.88;;;2.70;;
79284;SDS011;68734;50.452;11.636;2023-05-19T08:21:09;9.18;;;3.92;;
79284;SDS011;68734;50.452;11.636;2023-05-19T08:23:34;5.18;;;2.80;;
79284;SDS011;68734;50.452;11.636;2023-05-19T08:26:01;5.45;;;2.63;;
79284;SDS011;68734;50.452;11.636;2023-05-19T08:28:27;16.35;;;3.15;;
79284;SDS011;68734;50.452;11.636;2023-05-19T08:30:52;9.63;;;2.63;;
79284;SDS011;68734;50.452;11.636;2023-05-19T08:33:17;6.10;;;3.03;;
79284;SDS011;68734;50.452;11.636;2023-05-19T08:35:45;8.07;;;3.30;;
79284;SDS011;68734;50.452;11.636;2023-05-19T08:38:11;9.77;;;2.80;;
79284;SDS011;68734;50.452;11.636;2023-05-19T08:40:36;4.18;;;2.38;;
79284;SDS011;68734;50.452;11.636;2023-05-19T08:43:05;6.45;;;3.15;;
79284;SDS011;68734;50.452;11.636;2023-05-19T08:45:32;7.00;;;3.45;;
79284;SDS011;68734;50.452;11.636;2023-05-19T08:47:58;5.85;;;3.65;;
79284;SDS011;68734;50.452;11.636;2023-05-19T08:50:27;8.75;;;3.35;;
79284;SDS011;68734;50.452;11.636;2023-05-19T08:53:00;5.75;;;3.20;;
79284;SDS011;68734;50.452;11.636;2023-05-19T08:55:48;6.43;;;3.38;;
79284;SDS011;68734;50.452;11.636;2023-05-19T08:58:19;8.48;;;3.90;;
79284;SDS011;68734;50.452;11.636;2023-05-19T09:00:46;7.22;;;4.03;;
79284;SDS011;68734;50.452;11.636;2023-05-19T09:03:12;8.73;;;3.47;;
79284;SDS011;68734;50.452;11.636;2023-05-19T09:05:39;8.30;;;3.78;;
79284;SDS011;68734;50.452;11.636;2023-05-19T09:08:05;6.00;;;3.20;;
79284;SDS011;68734;50.452;11.636;2023-05-19T09:10:31;7.28;;;3.50;;
79284;SDS011;68734;50.452;11.636;2023-05-19T09:12:57;5.25;;;3.58;;
79284;SDS011;68734;50.452;11.636;2023-05-19T09:15:25;7.28;;;3.17;;
79284;SDS011;68734;50.452;11.636;2023-05-19T09:18:02;7.18;;;3.58;;
79284;SDS011;68734;50.452;11.636;2023-05-19T09:20:39;8.70;;;3.22;;
79284;SDS011;68734;50.452;11.636;2023-05-19T09:23:06;5.50;;;3.25;;
79284;SDS011;68734;50.452;11.636;2023-05-19T09:25:32;5.10;;;2.63;;
79284;SDS011;68734;50.452;11.636;2023-05-19T09:27:58;6.57;;;3.28;;
79284;SDS011;68734;50.452;11.636;2023-05-19T09:30:23;5.57;;;3.15;;
79284;SDS011;68734;50.452;11.636;2023-05-19T09:32:49;5.70;;;3.00;;
79284;SDS011;68734;50.452;11.636;2023-05-19T09:35:15;7.43;;;3.38;;
79284;SDS011;68734;50.452;11.636;2023-05-19T09:37:41;3.67;;;2.28;;
79284;SDS011;68734;50.452;11.636;2023-05-19T09:40:14;9.57;;;3.00;;
79284;SDS011;68734;50.452;11.636;2023-05-19T09:42:42;9.27;;;3.20;;
79284;SDS011;68734;50.452;11.636;2023-05-19T09:45:08;11.10;;;4.13;;
79284;SDS011;68734;50.452;11.636;2023-05-19T09:47:37;5.10;;;2.65;;
79284;SDS011;68734;50.452;11.636;2023-05-19T09:50:08;4.38;;;2.33;;
79284;SDS011;68734;50.452;11.636;2023-05-19T09:52:35;6.90;;;2.40;;
79284;SDS011;68734;50.452;11.636;2023-05-19T09:57:36;7.75;;;2.38;;
79284;SDS011;68734;50.452;11.636;2023-05-19T10:00:05;5.97;;;2.85;;
79284;SDS011;68734;50.452;11.636;2023-05-19T10:02:45;3.78;;;2.30;;
79284;SDS011;68734;50.452;11.636;2023-05-19T10:05:15;4.78;;;2.20;;
79284;SDS011;68734;50.452;11.636;2023-05-19T10:07:51;4.53;;;2.55;;
79284;SDS011;68734;50.452;11.636;2023-05-19T10:10:21;5.40;;;2.22;;
79284;SDS011;68734;50.452;11.636;2023-05-19T10:12:47;4.55;;;2.40;;
79284;SDS011;68734;50.452;11.636;2023-05-19T10:15:14;5.65;;;1.90;;
79284;SDS011;68734;50.452;11.636;2023-05-19T10:17:41;6.63;;;2.33;;
79284;SDS011;68734;50.452;11.636;2023-05-19T10:20:11;4.57;;;2.15;;
79284;SDS011;68734;50.452;11.636;2023-05-19T10:22:38;3.63;;;2.13;;
79284;SDS011;68734;50.452;11.636;2023-05-19T10:25:05;5.30;;;1.83;;
79284;SDS011;68734;50.452;11.636;2023-05-19T10:27:33;6.78;;;2.13;;
79284;SDS011;68734;50.452;11.636;2023-05-19T10:30:07;2.90;;;1.95;;
79284;SDS011;68734;50.452;11.636;2023-05-19T10:32:38;4.55;;;1.92;;
79284;SDS011;68734;50.452;11.636;2023-05-19T10:40:52;7.55;;;2.38;;
79284;SDS011;68734;50.452;11.636;2023-05-19T10:43:34;5.65;;;3.03;;
79284;SDS011;68734;50.452;11.636;2023-05-19T10:46:11;5.18;;;2.38;;
79284;SDS011;68734;50.452;11.636;2023-05-19T10:48:36;2.75;;;1.80;;
79284;SDS011;68734;50.452;11.636;2023-05-19T10:51:02;4.82;;;2.00;;
79284;SDS011;68734;50.452;11.636;2023-05-19T10:53:31;4.65;;;2.75;;
79284;SDS011;68734;50.452;11.636;2023-05-19T10:55:57;5.15;;;2.45;;
79284;SDS011;68734;50.452;11.636;2023-05-19T11:01:08;5.38;;;2.60;;
79284;SDS011;68734;50.452;11.636;2023-05-19T11:06:28;6.35;;;2.10;;
79284;SDS011;68734;50.452;11.636;2023-05-19T11:08:59;8.40;;;2.15;;
79284;SDS011;68734;50.452;11.636;2023-05-19T11:14:11;2.55;;;1.70;;
79284;SDS011;68734;50.452;11.636;2023-05-19T11:16:38;6.60;;;1.95;;
79284;SDS011;68734;50.452;11.636;2023-05-19T11:19:07;3.83;;;1.70;;
79284;SDS011;68734;50.452;11.636;2023-05-19T11:21:47;3.40;;;2.03;;
79284;SDS011;68734;50.452;11.636;2023-05-19T11:24:35;4.38;;;1.63;;
79284;SDS011;68734;50.452;11.636;2023-05-19T11:29:46;4.40;;;2.38;;
79284;SDS011;68734;50.452;11.636;2023-05-19T11:32:13;3.63;;;1.98;;
79284;SDS011;68734;50.452;11.636;2023-05-19T11:34:39;9.65;;;1.92;;
79284;SDS011;68734;50.452;11.636;2023-05-19T11:37:05;4.50;;;2.33;;
79284;SDS011;68734;50.452;11.636;2023-05-19T11:39:32;4.25;;;2.50;;
79284;SDS011;68734;50.452;11.636;2023-05-19T11:41:57;5.03;;;2.55;;
79284;SDS011;68734;50.452;11.636;2023-05-19T11:44:23;5.75;;;2.33;;
79284;SDS011;68734;50.452;11.636;2023-05-19T11:46:48;5.00;;;2.53;;
79284;SDS011;68734;50.452;11.636;2023-05-19T11:49:17;3.10;;;2.22;;
79284;SDS011;68734;50.452;11.636;2023-05-19T11:51:42;3.92;;;1.80;;
79284;SDS011;68734;50.452;11.636;2023-05-19T11:54:11;4.55;;;2.28;;
79284;SDS011;68734;50.452;11.636;2023-05-19T11:56:41;4.72;;;1.88;;
79284;SDS011;68734;50.452;11.636;2023-05-19T11:59:07;3.00;;;1.90;;
79284;SDS011;68734;50.452;11.636;2023-05-19T12:01:33;4.90;;;1.90;;
79284;SDS011;68734;50.452;11.636;2023-05-19T12:04:00;6.97;;;1.80;;
79284;SDS011;68734;50.452;11.636;2023-05-19T12:06:27;7.05;;;2.60;;
79284;SDS011;68734;50.452;11.636;2023-05-19T12:08:53;6.50;;;2.38;;
79284;SDS011;68734;50.452;11.636;2023-05-19T12:11:19;8.38;;;2.55;;
79284;SDS011;68734;50.452;11.636;2023-05-19T12:13:48;3.15;;;2.33;;
79284;SDS011;68734;50.452;11.636;2023-05-19T12:16:15;6.82;;;2.42;;
79284;SDS011;68734;50.452;11.636;2023-05-19T12:18:44;4.65;;;2.58;;
79284;SDS011;68734;50.452;11.636;2023-05-19T12:21:10;5.35;;;2.72;;
79284;SDS011;68734;50.452;11.636;2023-05-19T12:23:36;5.82;;;2.72;;
79284;SDS011;68734;50.452;11.636;2023-05-19T12:26:05;5.13;;;2.75;;
79284;SDS011;68734;50.452;11.636;2023-05-19T12:28:33;4.72;;;2.70;;
79284;SDS011;68734;50.452;11.636;2023-05-19T12:31:00;9.40;;;3.25;;
79284;SDS011;68734;50.452;11.636;2023-05-19T12:33:29;7.75;;;3.08;;
79284;SDS011;68734;50.452;11.636;2023-05-19T12:35:57;7.10;;;2.78;;
79284;SDS011;68734;50.452;11.636;2023-05-19T12:38:24;4.60;;;2.60;;
79284;SDS011;68734;50.452;11.636;2023-05-19T12:40:50;7.35;;;3.47;;
79284;SDS011;68734;50.452;11.636;2023-05-19T12:43:19;3.72;;;2.47;;
79284;SDS011;68734;50.452;11.636;2023-05-19T12:45:45;4.80;;;2.15;;
79284;SDS011;68734;50.452;11.636;2023-05-19T12:48:11;9.75;;;2.97;;
79284;SDS011;68734;50.452;11.636;2023-05-19T12:50:37;7.32;;;3.00;;
79284;SDS011;68734;50.452;11.636;2023-05-19T12:53:06;6.32;;;3.20;;
79284;SDS011;68734;50.452;11.636;2023-05-19T12:55:38;4.40;;;2.88;;
79284;SDS011;68734;50.452;11.636;2023-05-19T12:58:09;5.47;;;2.50;;
79284;SDS011;68734;50.452;11.636;2023-05-19T13:03:15;5.90;;;3.47;;
79284;SDS011;68734;50.452;11.636;2023-05-19T13:05:48;6.63;;;3.05;;
79284;SDS011;68734;50.452;11.636;2023-05-19T13:08:18;4.63;;;3.25;;
79284;SDS011;68734;50.452;11.636;2023-05-19T13:10:45;7.82;;;3.38;;
79284;SDS011;68734;50.452;11.636;2023-05-19T13:13:11;5.57;;;2.88;;
79284;SDS011;68734;50.452;11.636;2023-05-19T13:15:43;5.32;;;2.70;;
79284;SDS011;68734;50.452;11.636;2023-05-19T13:18:15;7.18;;;3.20;;
79284;SDS011;68734;50.452;11.636;2023-05-19T13:20:41;6.53;;;3.58;;
79284;SDS011;68734;50.452;11.636;2023-05-19T13:23:11;8.00;;;3.58;;
79284;SDS011;68734;50.452;11.636;2023-05-19T13:25:38;8.45;;;3.08;;
79284;SDS011;68734;50.452;11.636;2023-05-19T13:28:03;6.20;;;3.10;;
79284;SDS011;68734;50.452;11.636;2023-05-19T13:30:30;6.80;;;3.30;;
79284;SDS011;68734;50.452;11.636;2023-05-19T13:32:59;6.45;;;3.40;;
79284;SDS011;68734;50.452;11.636;2023-05-19T13:35:27;11.82;;;3.55;;
79284;SDS011;68734;50.452;11.636;2023-05-19T13:37:53;7.78;;;2.97;;
79284;SDS011;68734;50.452;11.636;2023-05-19T13:40:18;8.07;;;3.53;;
79284;SDS011;68734;50.452;11.636;2023-05-19T13:42:44;6.30;;;3.50;;
79284;SDS011;68734;50.452;11.636;2023-05-19T13:45:09;12.00;;;3.97;;
79284;SDS011;68734;50.452;11.636;2023-05-19T13:47:36;9.82;;;3.72;;
79284;SDS011;68734;50.452;11.636;2023-05-19T13:50:02;6.45;;;2.80;;
79284;SDS011;68734;50.452;11.636;2023-05-19T13:52:28;11.70;;;3.97;;
79284;SDS011;68734;50.452;11.636;2023-05-19T13:54:54;7.38;;;4.38;;
79284;SDS011;68734;50.452;11.636;2023-05-19T13:57:20;7.00;;;3.40;;
79284;SDS011;68734;50.452;11.636;2023-05-19T13:59:47;8.35;;;3.78;;
79284;SDS011;68734;50.452;11.636;2023-05-19T14:02:12;7.68;;;3.40;;
79284;SDS011;68734;50.452;11.636;2023-05-19T14:04:40;8.73;;;3.10;;
79284;SDS011;68734;50.452;11.636;2023-05-19T14:07:08;8.75;;;3.40;;
79284;SDS011;68734;50.452;11.636;2023-05-19T14:09:36;8.10;;;3.35;;
79284;SDS011;68734;50.452;11.636;2023-05-19T14:12:02;7.35;;;3.50;;
79284;SDS011;68734;50.452;11.636;2023-05-19T14:14:27;7.97;;;3.03;;
79284;SDS011;68734;50.452;11.636;2023-05-19T14:16:53;6.70;;;3.17;;
79284;SDS011;68734;50.452;11.636;2023-05-19T14:19:20;8.55;;;3.42;;
79284;SDS011;68734;50.452;11.636;2023-05-19T14:21:45;6.60;;;2.80;;
79284;SDS011;68734;50.452;11.636;2023-05-19T14:24:13;3.85;;;3.10;;
79284;SDS011;68734;50.452;11.636;2023-05-19T14:26:39;7.68;;;4.22;;
79284;SDS011;68734;50.452;11.636;2023-05-19T14:29:07;7.38;;;3.35;;
79284;SDS011;68734;50.452;11.636;2023-05-19T14:31:32;5.32;;;2.80;;
79284;SDS011;68734;50.452;11.636;2023-05-19T14:33:58;6.50;;;3.03;;
79284;SDS011;68734;50.452;11.636;2023-05-19T14:36:23;6.13;;;3.38;;
79284;SDS011;68734;50.452;11.636;2023-05-19T14:38:48;7.55;;;3.30;;
79284;SDS011;68734;50.452;11.636;2023-05-19T14:41:14;8.65;;;2.95;;
79284;SDS011;68734;50.452;11.636;2023-05-19T14:43:39;4.60;;;2.38;;
79284;SDS011;68734;50.452;11.636;2023-05-19T14:46:07;5.97;;;2.67;;
79284;SDS011;68734;50.452;11.636;2023-05-19T14:48:32;5.55;;;2.65;;
79284;SDS011;68734;50.452;11.636;2023-05-19T14:51:00;5.07;;;2.22;;
79284;SDS011;68734;50.452;11.636;2023-05-19T14:53:25;6.22;;;3.80;;
79284;SDS011;68734;50.452;11.636;2023-05-19T14:55:51;5.47;;;2.58;;
79284;SDS011;68734;50.452;11.636;2023-05-19T14:58:16;4.20;;;2.22;;
79284;SDS011;68734;50.452;11.636;2023-05-19T15:00:42;7.55;;;2.97;;
79284;SDS011;68734;50.452;11.636;2023-05-19T15:03:08;16.70;;;4.15;;
79284;SDS011;68734;50.452;11.636;2023-05-19T15:05:33;7.20;;;3.60;;
79284;SDS011;68734;50.452;11.636;2023-05-19T15:08:02;5.30;;;3.28;;
79284;SDS011;68734;50.452;11.636;2023-05-19T15:10:31;8.68;;;3.78;;
79284;SDS011;68734;50.452;11.636;2023-05-19T15:12:57;7.50;;;3.08;;
79284;SDS011;68734;50.452;11.636;2023-05-19T15:15:24;5.47;;;2.95;;